Strona główna
METAR-TAF:

METAR-TAF

Lotnisko :

Port lotniczy Genua

Genua, Włochy

Szerokość geograficzna: 44-25N, Długość geograficzna: 008-51E, wysokość: 2 m

Aktualna obserwacja pogody

Raport powstał 2 godziny i 1 minut temu, godzina 20:50 UTC
Wiatr 4 kt od północno-północny wschód
Temperatura 19°C
Wilgotność 52%
Ciśnienie 1015 hPa
Widzialność 10 km lub więcej
Brak chmur poniżej 1500 m i brak chmur cumulonimbus

METAR: LIMJ 302050Z 02004KT CAVOK 19/09 Q1015

czas: 00:51 (22:51 UTC)

Prognoza

Raport powstał 5 godziny i 51 minut temu, godzina 17:00 UTC
Prognoza ważna od 30 godzina 18 UTC do 31 godzina 18 UTC
Wiatr 10 kt od południowy zachód
Widzialność 10 km lub więcej
Rozproszone chmury na wysokości 5000 ft
Stopniowe zmiany
od 30 godzina 19 UTC do 30 godzina 21 UTC
Wiatr 8 kt od północno-północny wschód
Stopniowe zmiany
od 31 godzina 08 UTC do 31 godzina 10 UTC
Wiatr 10 kt od południowy wschód

TAF: LIMJ 301700Z 3018/3118 22010KT 9999 SCT050 BECMG 3019/3021 03008KT BECMG 3108/3110 14010KT

Obserwacja i prognoza pogody dla ponad 4000 lotnisk (raport METAR i TAF).

Dostępne stacje oznaczono żółtymi i czerwonymi punktami na mapie.

Najedź kursorem aby zobaczyć nazwę stacji.

Kliknij aby zobaczyć obserwacje i prognozy pogody.

Aby zmienić mapę: kliknij na zielony przycisk z czarnym krzyżykiem, aby powiększyć; na zielony przycisk z myślnikiem, aby pomniejszyć; na zielone strzałki, aby przejść do map sąsiednich.


METAR-TAF: